sensor_id;sensor_type;location;lat;lon;timestamp;pressure;altitude;pressure_sealevel;temperature;humidity
48204;BME280;33994;50.998;5.864;2023-02-13T00:02:37;103158.53;;;3.88;100.00
48204;BME280;33994;50.998;5.864;2023-02-13T00:05:41;103154.06;;;3.86;100.00
48204;BME280;33994;50.998;5.864;2023-02-13T00:08:44;103147.13;;;3.85;100.00
48204;BME280;33994;50.998;5.864;2023-02-13T00:11:46;103152.31;;;3.85;100.00
48204;BME280;33994;50.998;5.864;2023-02-13T00:14:50;103150.50;;;3.84;100.00
48204;BME280;33994;50.998;5.864;2023-02-13T00:17:53;103150.38;;;3.81;100.00
48204;BME280;33994;50.998;5.864;2023-02-13T00:20:58;103144.38;;;3.82;100.00
48204;BME280;33994;50.998;5.864;2023-02-13T00:24:01;103146.97;;;3.82;100.00
48204;BME280;33994;50.998;5.864;2023-02-13T00:27:04;103141.78;;;3.82;100.00
48204;BME280;33994;50.998;5.864;2023-02-13T00:30:08;103141.78;;;3.82;100.00
48204;BME280;33994;50.998;5.864;2023-02-13T00:33:11;103151.97;;;3.79;100.00
48204;BME280;33994;50.998;5.864;2023-02-13T00:36:17;103143.25;;;3.77;100.00
48204;BME280;33994;50.998;5.864;2023-02-13T00:39:20;103141.31;;;3.73;100.00
48204;BME280;33994;50.998;5.864;2023-02-13T00:42:23;103142.78;;;3.68;100.00
48204;BME280;33994;50.998;5.864;2023-02-13T00:45:27;103139.25;;;3.66;100.00
48204;BME280;33994;50.998;5.864;2023-02-13T00:48:31;103142.56;;;3.63;100.00
48204;BME280;33994;50.998;5.864;2023-02-13T00:51:36;103134.81;;;3.63;100.00
48204;BME280;33994;50.998;5.864;2023-02-13T00:54:38;103142.34;;;3.58;100.00
48204;BME280;33994;50.998;5.864;2023-02-13T00:57:42;103133.59;;;3.56;100.00
48204;BME280;33994;50.998;5.864;2023-02-13T01:00:45;103128.41;;;3.56;100.00
48204;BME280;33994;50.998;5.864;2023-02-13T01:03:48;103134.41;;;3.55;100.00
48204;BME280;33994;50.998;5.864;2023-02-13T01:06:53;103136.03;;;3.53;100.00
48204;BME280;33994;50.998;5.864;2023-02-13T01:09:56;103125.69;;;3.53;100.00
48204;BME280;33994;50.998;5.864;2023-02-13T01:12:59;103131.84;;;3.55;100.00
48204;BME280;33994;50.998;5.864;2023-02-13T01:16:02;103135.06;;;3.51;100.00
48204;BME280;33994;50.998;5.864;2023-02-13T01:19:05;103127.81;;;3.44;99.87
48204;BME280;33994;50.998;5.864;2023-02-13T01:22:10;103136.22;;;3.40;99.72
48204;BME280;33994;50.998;5.864;2023-02-13T01:25:13;103133.31;;;3.34;99.48
48204;BME280;33994;50.998;5.864;2023-02-13T01:28:16;103128.63;;;3.27;99.51
48204;BME280;33994;50.998;5.864;2023-02-13T01:31:19;103132.69;;;3.22;99.22
48204;BME280;33994;50.998;5.864;2023-02-13T01:34:22;103124.59;;;3.15;98.87
48204;BME280;33994;50.998;5.864;2023-02-13T01:37:27;103128.59;;;3.09;98.55
48204;BME280;33994;50.998;5.864;2023-02-13T01:40:29;103125.66;;;3.03;98.26
48204;BME280;33994;50.998;5.864;2023-02-13T01:43:48;103129.72;;;2.98;98.26
48204;BME280;33994;50.998;5.864;2023-02-13T01:46:51;103125.19;;;2.94;98.48
48204;BME280;33994;50.998;5.864;2023-02-13T01:50:03;103135.13;;;2.86;98.30
48204;BME280;33994;50.998;5.864;2023-02-13T01:53:11;103128.00;;;2.82;98.42
48204;BME280;33994;50.998;5.864;2023-02-13T01:56:19;103128.66;;;2.78;98.34
48204;BME280;33994;50.998;5.864;2023-02-13T01:59:24;103128.22;;;2.70;98.17
48204;BME280;33994;50.998;5.864;2023-02-13T02:02:30;103135.91;;;2.69;97.90
48204;BME280;33994;50.998;5.864;2023-02-13T02:05:37;103142.53;;;2.63;97.78
48204;BME280;33994;50.998;5.864;2023-02-13T02:08:42;103132.09;;;2.62;97.61
48204;BME280;33994;50.998;5.864;2023-02-13T02:11:51;103128.44;;;2.58;97.69
48204;BME280;33994;50.998;5.864;2023-02-13T02:14:57;103128.31;;;2.55;97.59
48204;BME280;33994;50.998;5.864;2023-02-13T02:18:00;103129.72;;;2.50;97.76
48204;BME280;33994;50.998;5.864;2023-02-13T02:21:27;103130.47;;;2.48;97.84
48204;BME280;33994;50.998;5.864;2023-02-13T02:24:53;103127.78;;;2.46;97.99
48204;BME280;33994;50.998;5.864;2023-02-13T02:28:30;103129.41;;;2.44;97.88
48204;BME280;33994;50.998;5.864;2023-02-13T02:32:13;103124.88;;;2.40;97.82
48204;BME280;33994;50.998;5.864;2023-02-13T02:35:29;103126.47;;;2.38;98.09
48204;BME280;33994;50.998;5.864;2023-02-13T02:38:44;103123.72;;;2.35;97.86
48204;BME280;33994;50.998;5.864;2023-02-13T02:42:03;103126.75;;;2.28;97.72
48204;BME280;33994;50.998;5.864;2023-02-13T02:45:18;103121.97;;;2.19;97.67
48204;BME280;33994;50.998;5.864;2023-02-13T02:48:31;103124.38;;;2.16;97.67
48204;BME280;33994;50.998;5.864;2023-02-13T02:51:39;103130.00;;;2.09;97.51
48204;BME280;33994;50.998;5.864;2023-02-13T02:54:49;103131.44;;;2.04;97.52
48204;BME280;33994;50.998;5.864;2023-02-13T02:58:01;103134.66;;;2.00;97.64
48204;BME280;33994;50.998;5.864;2023-02-13T03:01:08;103130.94;;;1.95;97.30
48204;BME280;33994;50.998;5.864;2023-02-13T03:04:18;103129.88;;;1.91;97.40
48204;BME280;33994;50.998;5.864;2023-02-13T03:07:22;103129.69;;;1.88;97.47
48204;BME280;33994;50.998;5.864;2023-02-13T03:10:29;103128.69;;;1.86;97.52
48204;BME280;33994;50.998;5.864;2023-02-13T03:13:41;103127.47;;;1.79;97.24
48204;BME280;33994;50.998;5.864;2023-02-13T03:16:46;103123.81;;;1.76;97.23
48204;BME280;33994;50.998;5.864;2023-02-13T03:19:59;103125.41;;;1.74;97.57
48204;BME280;33994;50.998;5.864;2023-02-13T03:23:11;103114.13;;;1.72;97.35
48204;BME280;33994;50.998;5.864;2023-02-13T03:26:27;103121.13;;;1.74;97.40
48204;BME280;33994;50.998;5.864;2023-02-13T03:29:40;103126.03;;;1.69;97.23
48204;BME280;33994;50.998;5.864;2023-02-13T03:32:52;103119.34;;;1.58;96.89
48204;BME280;33994;50.998;5.864;2023-02-13T03:36:06;103120.59;;;1.50;96.81
48204;BME280;33994;50.998;5.864;2023-02-13T03:39:18;103124.63;;;1.45;97.26
48204;BME280;33994;50.998;5.864;2023-02-13T03:42:27;103124.44;;;1.42;97.29
48204;BME280;33994;50.998;5.864;2023-02-13T03:45:36;103127.88;;;1.42;97.12
48204;BME280;33994;50.998;5.864;2023-02-13T03:48:42;103128.59;;;1.40;97.36
48204;BME280;33994;50.998;5.864;2023-02-13T03:51:51;103136.44;;;1.41;97.53
48204;BME280;33994;50.998;5.864;2023-02-13T03:54:57;103138.59;;;1.49;97.60
48204;BME280;33994;50.998;5.864;2023-02-13T03:58:05;103141.94;;;1.48;96.82
48204;BME280;33994;50.998;5.864;2023-02-13T04:01:11;103135.63;;;1.42;97.01
48204;BME280;33994;50.998;5.864;2023-02-13T04:04:21;103134.38;;;1.36;96.33
48204;BME280;33994;50.998;5.864;2023-02-13T04:07:28;103133.13;;;1.29;96.29
48204;BME280;33994;50.998;5.864;2023-02-13T04:10:33;103140.56;;;1.25;96.30
48204;BME280;33994;50.998;5.864;2023-02-13T04:13:42;103143.69;;;1.19;95.98
48204;BME280;33994;50.998;5.864;2023-02-13T04:16:51;103142.69;;;1.17;96.10
48204;BME280;33994;50.998;5.864;2023-02-13T04:19:57;103151.84;;;1.12;95.79
48204;BME280;33994;50.998;5.864;2023-02-13T04:23:05;103146.22;;;1.04;96.41
48204;BME280;33994;50.998;5.864;2023-02-13T04:26:14;103153.94;;;1.04;96.39
48204;BME280;33994;50.998;5.864;2023-02-13T04:29:19;103146.13;;;1.03;96.78
48204;BME280;33994;50.998;5.864;2023-02-13T04:32:22;103146.81;;;1.00;96.84
48204;BME280;33994;50.998;5.864;2023-02-13T04:35:25;103145.94;;;1.00;97.35
48204;BME280;33994;50.998;5.864;2023-02-13T04:38:30;103144.66;;;0.93;97.05
48204;BME280;33994;50.998;5.864;2023-02-13T04:41:32;103146.97;;;0.88;97.50
48204;BME280;33994;50.998;5.864;2023-02-13T04:44:35;103138.44;;;0.89;97.42
48204;BME280;33994;50.998;5.864;2023-02-13T04:47:38;103140.94;;;0.88;97.58
48204;BME280;33994;50.998;5.864;2023-02-13T04:50:41;103131.13;;;0.82;98.04
48204;BME280;33994;50.998;5.864;2023-02-13T04:53:45;103132.81;;;0.82;97.98
48204;BME280;33994;50.998;5.864;2023-02-13T04:56:48;103137.00;;;0.80;97.66
48204;BME280;33994;50.998;5.864;2023-02-13T04:59:51;103122.91;;;0.75;97.99
48204;BME280;33994;50.998;5.864;2023-02-13T05:02:59;103128.78;;;0.72;97.72
48204;BME280;33994;50.998;5.864;2023-02-13T05:06:02;103127.88;;;0.71;98.16
48204;BME280;33994;50.998;5.864;2023-02-13T05:09:06;103124.31;;;0.69;98.08
48204;BME280;33994;50.998;5.864;2023-02-13T05:12:09;103125.22;;;0.70;98.21
48204;BME280;33994;50.998;5.864;2023-02-13T05:15:12;103129.47;;;0.69;98.10
48204;BME280;33994;50.998;5.864;2023-02-13T05:18:16;103126.09;;;0.70;97.87
48204;BME280;33994;50.998;5.864;2023-02-13T05:21:19;103123.63;;;0.72;98.21
48204;BME280;33994;50.998;5.864;2023-02-13T05:24:23;103129.06;;;0.77;97.54
48204;BME280;33994;50.998;5.864;2023-02-13T05:27:27;103124.72;;;0.76;97.84
48204;BME280;33994;50.998;5.864;2023-02-13T05:30:29;103126.31;;;0.74;97.55
48204;BME280;33994;50.998;5.864;2023-02-13T05:33:32;103126.31;;;0.74;97.25
48204;BME280;33994;50.998;5.864;2023-02-13T05:36:35;103127.88;;;0.71;97.62
48204;BME280;33994;50.998;5.864;2023-02-13T05:39:40;103129.28;;;0.66;97.46
48204;BME280;33994;50.998;5.864;2023-02-13T05:42:42;103130.69;;;0.61;97.48
48204;BME280;33994;50.998;5.864;2023-02-13T05:45:45;103132.47;;;0.62;97.08
48204;BME280;33994;50.998;5.864;2023-02-13T05:48:49;103124.81;;;0.64;97.47
48204;BME280;33994;50.998;5.864;2023-02-13T05:51:53;103119.50;;;0.61;97.10
48204;BME280;33994;50.998;5.864;2023-02-13T05:54:57;103123.56;;;0.57;96.88
48204;BME280;33994;50.998;5.864;2023-02-13T05:58:00;103129.50;;;0.56;97.10
48204;BME280;33994;50.998;5.864;2023-02-13T06:01:04;103123.56;;;0.57;97.16
48204;BME280;33994;50.998;5.864;2023-02-13T06:04:07;103120.19;;;0.58;97.04
48204;BME280;33994;50.998;5.864;2023-02-13T06:07:10;103115.84;;;0.57;97.29
48204;BME280;33994;50.998;5.864;2023-02-13T06:10:14;103118.41;;;0.57;97.29
48204;BME280;33994;50.998;5.864;2023-02-13T06:13:18;103123.47;;;0.56;97.10
48204;BME280;33994;50.998;5.864;2023-02-13T06:16:21;103124.78;;;0.49;97.10
48204;BME280;33994;50.998;5.864;2023-02-13T06:19:24;103114.56;;;0.51;97.31
48204;BME280;33994;50.998;5.864;2023-02-13T06:22:27;103117.63;;;0.58;97.98
48204;BME280;33994;50.998;5.864;2023-02-13T06:25:33;103114.53;;;0.64;97.83
48204;BME280;33994;50.998;5.864;2023-02-13T06:28:36;103119.97;;;0.68;97.57
48204;BME280;33994;50.998;5.864;2023-02-13T06:31:39;103112.41;;;0.71;97.09
48204;BME280;33994;50.998;5.864;2023-02-13T06:34:42;103116.53;;;0.68;96.57
48204;BME280;33994;50.998;5.864;2023-02-13T06:37:45;103117.56;;;0.71;96.92
48204;BME280;33994;50.998;5.864;2023-02-13T06:40:50;103113.03;;;0.67;96.53
48204;BME280;33994;50.998;5.864;2023-02-13T06:43:53;103119.66;;;0.64;96.85
48204;BME280;33994;50.998;5.864;2023-02-13T06:46:56;103128.31;;;0.64;97.24
48204;BME280;33994;50.998;5.864;2023-02-13T06:49:59;103117.09;;;0.64;97.34
48204;BME280;33994;50.998;5.864;2023-02-13T06:53:02;103123.84;;;0.62;96.95
48204;BME280;33994;50.998;5.864;2023-02-13T06:56:06;103137.81;;;0.65;97.17
48204;BME280;33994;50.998;5.864;2023-02-13T06:59:10;103133.63;;;0.67;97.36
48204;BME280;33994;50.998;5.864;2023-02-13T07:02:13;103129.97;;;0.64;96.67
48204;BME280;33994;50.998;5.864;2023-02-13T07:05:16;103120.19;;;0.58;96.39
48204;BME280;33994;50.998;5.864;2023-02-13T07:08:19;103132.06;;;0.56;96.71
48204;BME280;33994;50.998;5.864;2023-02-13T07:11:24;103129.50;;;0.56;96.89
48204;BME280;33994;50.998;5.864;2023-02-13T07:14:27;103136.34;;;0.56;96.59
48204;BME280;33994;50.998;5.864;2023-02-13T07:17:30;103131.19;;;0.56;97.06
48204;BME280;33994;50.998;5.864;2023-02-13T07:20:33;103129.59;;;0.58;96.76
48204;BME280;33994;50.998;5.864;2023-02-13T07:23:37;103130.69;;;0.61;97.18
48204;BME280;33994;50.998;5.864;2023-02-13T07:26:41;103137.13;;;0.68;97.48
48204;BME280;33994;50.998;5.864;2023-02-13T07:29:44;103141.75;;;0.74;97.54
48204;BME280;33994;50.998;5.864;2023-02-13T07:32:47;103137.69;;;0.77;97.11
48204;BME280;33994;50.998;5.864;2023-02-13T07:35:51;103148.28;;;0.82;97.14
48204;BME280;33994;50.998;5.864;2023-02-13T07:38:54;103143.50;;;0.88;97.34
48204;BME280;33994;50.998;5.864;2023-02-13T07:41:58;103146.44;;;0.94;97.36
48204;BME280;33994;50.998;5.864;2023-02-13T07:45:02;103148.41;;;0.98;97.66
48204;BME280;33994;50.998;5.864;2023-02-13T07:48:05;103148.00;;;1.05;97.57
48204;BME280;33994;50.998;5.864;2023-02-13T07:51:08;103146.69;;;1.12;97.51
48204;BME280;33994;50.998;5.864;2023-02-13T07:54:11;103146.16;;;1.17;97.42
48204;BME280;33994;50.998;5.864;2023-02-13T07:57:16;103145.66;;;1.23;97.23
48204;BME280;33994;50.998;5.864;2023-02-13T08:00:20;103141.75;;;1.30;97.23
48204;BME280;33994;50.998;5.864;2023-02-13T08:03:24;103143.91;;;1.37;96.97
48204;BME280;33994;50.998;5.864;2023-02-13T08:06:27;103151.97;;;1.43;97.06
48204;BME280;33994;50.998;5.864;2023-02-13T08:09:30;103143.63;;;1.47;96.98
48204;BME280;33994;50.998;5.864;2023-02-13T08:12:34;103156.09;;;1.54;97.16
48204;BME280;33994;50.998;5.864;2023-02-13T08:15:38;103147.66;;;1.57;97.28
48204;BME280;33994;50.998;5.864;2023-02-13T08:18:41;103156.72;;;1.65;97.64
48204;BME280;33994;50.998;5.864;2023-02-13T08:21:45;103158.13;;;1.75;97.57
48204;BME280;33994;50.998;5.864;2023-02-13T08:24:48;103162.59;;;1.77;97.73
48204;BME280;33994;50.998;5.864;2023-02-13T08:27:52;103155.22;;;1.83;97.44
48204;BME280;33994;50.998;5.864;2023-02-13T08:30:55;103155.66;;;1.91;97.26
48204;BME280;33994;50.998;5.864;2023-02-13T08:33:58;103159.41;;;1.96;97.49
48204;BME280;33994;50.998;5.864;2023-02-13T08:37:01;103170.09;;;2.02;97.59
48204;BME280;33994;50.998;5.864;2023-02-13T08:40:06;103160.97;;;2.09;97.57
48204;BME280;33994;50.998;5.864;2023-02-13T08:43:10;103169.97;;;2.15;97.31
48204;BME280;33994;50.998;5.864;2023-02-13T08:46:14;103171.13;;;2.21;97.37
48204;BME280;33994;50.998;5.864;2023-02-13T08:49:17;103172.34;;;2.27;97.26
48204;BME280;33994;50.998;5.864;2023-02-13T08:52:20;103176.19;;;2.34;97.30
48204;BME280;33994;50.998;5.864;2023-02-13T08:55:23;103183.47;;;2.41;97.41
48204;BME280;33994;50.998;5.864;2023-02-13T08:58:27;103176.84;;;2.46;97.36
48204;BME280;33994;50.998;5.864;2023-02-13T09:01:31;103181.56;;;2.53;97.18
48204;BME280;33994;50.998;5.864;2023-02-13T09:04:34;103189.03;;;2.63;97.21
48204;BME280;33994;50.998;5.864;2023-02-13T09:07:37;103186.75;;;2.70;97.17
48204;BME280;33994;50.998;5.864;2023-02-13T09:10:40;103189.69;;;2.76;97.03
48204;BME280;33994;50.998;5.864;2023-02-13T09:13:45;103189.28;;;2.84;96.92
48204;BME280;33994;50.998;5.864;2023-02-13T09:16:48;103184.66;;;2.94;96.63
48204;BME280;33994;50.998;5.864;2023-02-13T09:19:51;103186.75;;;3.01;96.49
48204;BME280;33994;50.998;5.864;2023-02-13T09:22:55;103193.28;;;3.10;96.38
48204;BME280;33994;50.998;5.864;2023-02-13T09:25:58;103187.72;;;3.19;96.20
48204;BME280;33994;50.998;5.864;2023-02-13T09:29:03;103184.75;;;3.28;95.92
48204;BME280;33994;50.998;5.864;2023-02-13T09:32:05;103186.03;;;3.36;95.52
48204;BME280;33994;50.998;5.864;2023-02-13T09:35:09;103182.22;;;3.46;95.21
48204;BME280;33994;50.998;5.864;2023-02-13T09:38:11;103178.31;;;3.54;95.18
48204;BME280;33994;50.998;5.864;2023-02-13T09:41:18;103183.88;;;3.61;94.74
48204;BME280;33994;50.998;5.864;2023-02-13T09:44:27;103178.31;;;3.70;94.76
48204;BME280;33994;50.998;5.864;2023-02-13T09:47:35;103182.06;;;3.77;94.62
48204;BME280;33994;50.998;5.864;2023-02-13T09:50:39;103187.72;;;3.86;94.65
48204;BME280;33994;50.998;5.864;2023-02-13T09:53:47;103181.22;;;3.94;94.27
48204;BME280;33994;50.998;5.864;2023-02-13T09:56:55;103176.50;;;4.03;94.21
48204;BME280;33994;50.998;5.864;2023-02-13T10:00:05;103171.69;;;4.11;94.45
48204;BME280;33994;50.998;5.864;2023-02-13T10:03:27;103179.84;;;4.19;94.04
48204;BME280;33994;50.998;5.864;2023-02-13T10:06:34;103180.97;;;4.24;93.93
48204;BME280;33994;50.998;5.864;2023-02-13T10:09:45;103185.63;;;4.31;93.48
48204;BME280;33994;50.998;5.864;2023-02-13T10:12:55;103181.56;;;4.36;93.45
48204;BME280;33994;50.998;5.864;2023-02-13T10:16:08;103187.09;;;4.44;93.33
48204;BME280;33994;50.998;5.864;2023-02-13T10:19:22;103179.53;;;4.48;93.05
48204;BME280;33994;50.998;5.864;2023-02-13T10:22:30;103179.06;;;4.57;93.31
48204;BME280;33994;50.998;5.864;2023-02-13T10:25:41;103178.50;;;4.62;93.29
48204;BME280;33994;50.998;5.864;2023-02-13T10:28:48;103181.38;;;4.69;93.05
48204;BME280;33994;50.998;5.864;2023-02-13T10:31:55;103183.50;;;4.77;92.99
48204;BME280;33994;50.998;5.864;2023-02-13T10:35:02;103180.28;;;4.83;92.89
48204;BME280;33994;50.998;5.864;2023-02-13T10:38:15;103181.47;;;4.90;93.10
48204;BME280;33994;50.998;5.864;2023-02-13T10:41:23;103176.69;;;4.97;93.24
48204;BME280;33994;50.998;5.864;2023-02-13T10:44:39;103171.78;;;5.03;92.90
48204;BME280;33994;50.998;5.864;2023-02-13T10:47:54;103177.38;;;5.13;93.10
48204;BME280;33994;50.998;5.864;2023-02-13T10:51:03;103172.47;;;5.19;93.04
48204;BME280;33994;50.998;5.864;2023-02-13T10:54:23;103165.03;;;5.26;93.09
48204;BME280;33994;50.998;5.864;2023-02-13T10:57:42;103166.97;;;5.32;92.92
48204;BME280;33994;50.998;5.864;2023-02-13T11:00:54;103168.00;;;5.35;92.98
48204;BME280;33994;50.998;5.864;2023-02-13T11:04:04;103161.38;;;5.42;92.73
48204;BME280;33994;50.998;5.864;2023-02-13T11:07:11;103155.56;;;5.48;92.74
48204;BME280;33994;50.998;5.864;2023-02-13T11:10:19;103156.84;;;5.57;92.87
48204;BME280;33994;50.998;5.864;2023-02-13T11:13:24;103151.91;;;5.64;92.72
48204;BME280;33994;50.998;5.864;2023-02-13T11:16:27;103153.00;;;5.69;92.68
48204;BME280;33994;50.998;5.864;2023-02-13T11:19:44;103159.13;;;5.71;92.69
48204;BME280;33994;50.998;5.864;2023-02-13T11:22:48;103143.69;;;5.74;92.96
48204;BME280;33994;50.998;5.864;2023-02-13T11:25:55;103129.13;;;5.77;93.02
48204;BME280;33994;50.998;5.864;2023-02-13T11:29:00;103138.13;;;5.86;92.87
48204;BME280;33994;50.998;5.864;2023-02-13T11:32:18;103129.75;;;5.93;92.71
48204;BME280;33994;50.998;5.864;2023-02-13T11:35:30;103127.34;;;5.97;92.41
48204;BME280;33994;50.998;5.864;2023-02-13T11:38:34;103124.16;;;6.04;92.65
48204;BME280;33994;50.998;5.864;2023-02-13T11:41:40;103123.63;;;6.13;92.25
48204;BME280;33994;50.998;5.864;2023-02-13T11:44:48;103118.69;;;6.19;92.13
48204;BME280;33994;50.998;5.864;2023-02-13T11:47:53;103117.16;;;6.24;91.74
48204;BME280;33994;50.998;5.864;2023-02-13T11:50:58;103107.91;;;6.31;91.48
48204;BME280;33994;50.998;5.864;2023-02-13T11:54:02;103102.06;;;6.37;91.31
48204;BME280;33994;50.998;5.864;2023-02-13T11:57:18;103098.84;;;6.44;90.74
48204;BME280;33994;50.998;5.864;2023-02-13T12:00:29;103098.34;;;6.52;90.45
48204;BME280;33994;50.998;5.864;2023-02-13T12:03:33;103094.19;;;6.57;90.35
48204;BME280;33994;50.998;5.864;2023-02-13T12:06:37;103089.22;;;6.64;90.28
48204;BME280;33994;50.998;5.864;2023-02-13T12:09:41;103075.56;;;6.69;90.14
48204;BME280;33994;50.998;5.864;2023-02-13T12:12:52;103081.03;;;6.77;89.94
48204;BME280;33994;50.998;5.864;2023-02-13T12:15:58;103091.78;;;6.86;89.61
48204;BME280;33994;50.998;5.864;2023-02-13T12:19:05;103090.13;;;6.88;88.97
48204;BME280;33994;50.998;5.864;2023-02-13T12:22:35;103087.75;;;6.94;88.80
48204;BME280;33994;50.998;5.864;2023-02-13T12:25:59;103077.53;;;7.00;88.48
48204;BME280;33994;50.998;5.864;2023-02-13T12:29:17;103074.22;;;7.04;88.57
48204;BME280;33994;50.998;5.864;2023-02-13T12:32:28;103073.56;;;7.10;88.70
48204;BME280;33994;50.998;5.864;2023-02-13T12:35:47;103069.22;;;7.11;88.53
48204;BME280;33994;50.998;5.864;2023-02-13T12:39:07;103066.75;;;7.14;88.76
48204;BME280;33994;50.998;5.864;2023-02-13T12:42:24;103062.69;;;7.22;88.70
48204;BME280;33994;50.998;5.864;2023-02-13T12:45:32;103062.06;;;7.29;88.74
48204;BME280;33994;50.998;5.864;2023-02-13T12:48:51;103063.25;;;7.37;88.71
48204;BME280;33994;50.998;5.864;2023-02-13T12:52:13;103059.91;;;7.41;88.21
48204;BME280;33994;50.998;5.864;2023-02-13T12:55:31;103047.16;;;7.49;87.86
48204;BME280;33994;50.998;5.864;2023-02-13T12:58:51;103049.22;;;7.59;87.53
48204;BME280;33994;50.998;5.864;2023-02-13T13:02:15;103039.00;;;7.65;87.21
48204;BME280;33994;50.998;5.864;2023-02-13T13:05:38;103042.72;;;7.73;86.76
48204;BME280;33994;50.998;5.864;2023-02-13T13:09:02;103041.28;;;7.82;86.46
48204;BME280;33994;50.998;5.864;2023-02-13T13:12:26;103031.09;;;7.89;86.41
48204;BME280;33994;50.998;5.864;2023-02-13T13:15:38;103032.78;;;7.89;86.46
48204;BME280;33994;50.998;5.864;2023-02-13T13:18:51;103027.66;;;7.90;86.09
48204;BME280;33994;50.998;5.864;2023-02-13T13:22:01;103030.28;;;7.92;86.20
48204;BME280;33994;50.998;5.864;2023-02-13T13:25:13;103033.09;;;7.98;85.33
48204;BME280;33994;50.998;5.864;2023-02-13T13:28:27;103030.63;;;8.02;84.55
48204;BME280;33994;50.998;5.864;2023-02-13T13:31:33;103029.84;;;8.05;84.26
48204;BME280;33994;50.998;5.864;2023-02-13T13:34:38;103021.41;;;8.14;84.55
48204;BME280;33994;50.998;5.864;2023-02-13T13:37:44;103017.03;;;8.13;84.78
48204;BME280;33994;50.998;5.864;2023-02-13T13:40:51;103013.59;;;8.14;84.55
48204;BME280;33994;50.998;5.864;2023-02-13T13:44:14;103009.25;;;8.14;83.64
48204;BME280;33994;50.998;5.864;2023-02-13T13:47:36;103006.78;;;8.19;83.89
48204;BME280;33994;50.998;5.864;2023-02-13T13:50:43;103002.44;;;8.19;83.81
48204;BME280;33994;50.998;5.864;2023-02-13T13:54:19;103000.69;;;8.18;83.57
48204;BME280;33994;50.998;5.864;2023-02-13T13:57:25;103001.66;;;8.22;84.10
48204;BME280;33994;50.998;5.864;2023-02-13T14:00:30;102995.75;;;8.27;83.64
48204;BME280;33994;50.998;5.864;2023-02-13T14:03:34;102990.59;;;8.31;83.11
48204;BME280;33994;50.998;5.864;2023-02-13T14:07:19;102996.78;;;8.34;82.76
48204;BME280;33994;50.998;5.864;2023-02-13T14:17:54;102992.69;;;8.42;82.93
48204;BME280;33994;50.998;5.864;2023-02-13T14:20:59;102994.63;;;8.49;83.08
48204;BME280;33994;50.998;5.864;2023-02-13T14:24:10;102982.66;;;8.56;82.74
48204;BME280;33994;50.998;5.864;2023-02-13T14:27:21;102979.16;;;8.56;82.84
48204;BME280;33994;50.998;5.864;2023-02-13T14:30:27;102981.00;;;8.60;83.09
48204;BME280;33994;50.998;5.864;2023-02-13T14:33:33;102971.34;;;8.56;83.00
48204;BME280;33994;50.998;5.864;2023-02-13T14:36:39;102984.50;;;8.60;82.85
48204;BME280;33994;50.998;5.864;2023-02-13T14:40:10;102977.63;;;8.62;82.51
48204;BME280;33994;50.998;5.864;2023-02-13T14:43:29;102969.81;;;8.64;82.46
48204;BME280;33994;50.998;5.864;2023-02-13T14:46:36;102969.81;;;8.64;82.74
48204;BME280;33994;50.998;5.864;2023-02-13T14:49:43;102967.28;;;8.67;82.52
48204;BME280;33994;50.998;5.864;2023-02-13T14:52:48;102965.56;;;8.67;82.21
48204;BME280;33994;50.998;5.864;2023-02-13T14:55:56;102956.88;;;8.68;82.17
48204;BME280;33994;50.998;5.864;2023-02-13T14:59:09;102956.09;;;8.71;82.15
48204;BME280;33994;50.998;5.864;2023-02-13T15:02:18;102957.09;;;8.76;82.25
48204;BME280;33994;50.998;5.864;2023-02-13T15:05:29;102954.69;;;8.84;81.89
48204;BME280;33994;50.998;5.864;2023-02-13T15:08:37;102957.16;;;8.77;81.96
48204;BME280;33994;50.998;5.864;2023-02-13T15:11:43;102956.31;;;8.80;82.01
48204;BME280;33994;50.998;5.864;2023-02-13T15:14:46;102957.28;;;8.84;81.51
48204;BME280;33994;50.998;5.864;2023-02-13T15:17:49;102953.03;;;8.87;81.36
48204;BME280;33994;50.998;5.864;2023-02-13T15:20:57;102956.59;;;8.89;81.46
48204;BME280;33994;50.998;5.864;2023-02-13T15:24:01;102950.44;;;8.87;81.58
48204;BME280;33994;50.998;5.864;2023-02-13T15:27:05;102954.69;;;8.84;81.66
48204;BME280;33994;50.998;5.864;2023-02-13T15:30:18;102964.41;;;8.89;81.62
48204;BME280;33994;50.998;5.864;2023-02-13T15:33:23;102955.72;;;8.89;81.85
48204;BME280;33994;50.998;5.864;2023-02-13T15:36:39;102958.25;;;8.87;81.94
48204;BME280;33994;50.998;5.864;2023-02-13T15:39:42;102960.94;;;8.89;82.17
48204;BME280;33994;50.998;5.864;2023-02-13T15:42:45;102960.09;;;8.91;81.96
48204;BME280;33994;50.998;5.864;2023-02-13T15:45:48;102948.84;;;8.92;82.19
48204;BME280;33994;50.998;5.864;2023-02-13T15:48:52;102946.16;;;8.89;82.30
48204;BME280;33994;50.998;5.864;2023-02-13T15:52:04;102939.09;;;8.85;82.45
48204;BME280;33994;50.998;5.864;2023-02-13T15:55:17;102942.50;;;8.83;82.57
48204;BME280;33994;50.998;5.864;2023-02-13T15:58:24;102939.00;;;8.82;82.81
48204;BME280;33994;50.998;5.864;2023-02-13T16:01:30;102937.25;;;8.81;82.91
48204;BME280;33994;50.998;5.864;2023-02-13T16:04:34;102933.78;;;8.82;83.07
48204;BME280;33994;50.998;5.864;2023-02-13T16:07:48;102939.97;;;8.86;82.92
48204;BME280;33994;50.998;5.864;2023-02-13T16:11:19;102935.59;;;8.85;82.79
48204;BME280;33994;50.998;5.864;2023-02-13T16:14:26;102941.59;;;8.81;82.92
48204;BME280;33994;50.998;5.864;2023-02-13T16:17:32;102938.06;;;8.80;83.10
48204;BME280;33994;50.998;5.864;2023-02-13T16:20:35;102942.38;;;8.78;83.11
48204;BME280;33994;50.998;5.864;2023-02-13T16:23:42;102951.06;;;8.77;83.23
48204;BME280;33994;50.998;5.864;2023-02-13T16:26:46;102944.03;;;8.76;83.29
48204;BME280;33994;50.998;5.864;2023-02-13T16:29:54;102936.19;;;8.74;83.47
48204;BME280;33994;50.998;5.864;2023-02-13T16:33:19;102944.81;;;8.72;83.64
48204;BME280;33994;50.998;5.864;2023-02-13T16:36:27;102935.19;;;8.69;83.75
48204;BME280;33994;50.998;5.864;2023-02-13T16:39:32;102938.59;;;8.67;83.91
48204;BME280;33994;50.998;5.864;2023-02-13T16:42:35;102936.75;;;8.63;84.19